Chapin, Iowa
Current Conditions -  °F | °C
As of 9:46 PM on Friday 19 Dec 2014 (Local Time) from KMCW Reporting Station
Overcast Overcast  
Wind Chill: 19°   Ceiling: 900
Heat Index: 28°   Visibility: 7mi
Dew Point: 26°   Wind: 10mph
Humidity: 92%   Direction: 160°SSE
Pressure: 30.19"   Gusts: NA
Location:  42.83°N, 93.22°W
Report Text: KMCW 200346Z AUTO 16009KT 7SM BKN009 OVC030 M02/M03 A3019 RMK AO2 CIG 007V011 T10221033
Loading
Personal Weather Stations






























Interactive Weather Map New forecast layout! Learn more

10-Day Weather Forecast

Advertisements
Track Severe Weather on mobile